Tilford, South Dakota
Current Conditions -  °F | °C
As of 3:15 PM on Wednesday 28 Jan 2015 (Local Time) from KRCA Reporting Station
Drizzle Drizzle  
Wind Chill: 52°   Ceiling: Unl
Heat Index: 52°   Visibility: 10mi
Dew Point: 28°   Wind: 28mph
Humidity: 41%   Direction: 340°NNW
Pressure: 29.97"   Gusts: 38mph
Location:  44.2544°N, 103.292°W
Report Text: KRCA 282215Z AUTO 34024G33KT 10SM -DZ FEW160 11/M02 A2997 RMK AO2 PRESRR
Loading
Personal Weather Stations






























Interactive Weather Map New forecast layout! Learn more

10-Day Weather Forecast

Advertisements
Track Severe Weather on mobile